createdAt,value
2019-02-14T00:01:49.383Z,101370.70
2019-02-14T00:04:21.790Z,101366.08
2019-02-14T00:06:54.216Z,101368.70
2019-02-14T00:09:26.537Z,101372.80
2019-02-14T00:11:58.950Z,101379.73
2019-02-14T00:14:31.335Z,101378.45
2019-02-14T00:17:03.848Z,101374.77
2019-02-14T00:19:36.245Z,101375.17
2019-02-14T00:22:08.679Z,101370.72
2019-02-14T00:24:41.051Z,101370.80
2019-02-14T00:27:13.463Z,101369.97
2019-02-14T00:29:45.862Z,101371.14
2019-02-14T00:32:18.299Z,101371.12
2019-02-14T00:34:50.691Z,101370.25
2019-02-14T00:37:23.105Z,101373.19
2019-02-14T00:39:55.501Z,101371.16
2019-02-14T00:42:27.932Z,101371.08
2019-02-14T00:45:00.318Z,101370.31
2019-02-14T00:47:32.832Z,101368.23
2019-02-14T00:50:05.238Z,101362.95
2019-02-14T00:52:37.644Z,101363.80
2019-02-14T00:55:10.023Z,101367.68
2019-02-14T00:57:42.429Z,101362.37
2019-02-14T01:00:14.743Z,101359.73
2019-02-14T01:02:47.115Z,101363.89
2019-02-14T01:05:19.541Z,101359.78
2019-02-14T01:07:51.963Z,101362.87
2019-02-14T01:10:24.344Z,101359.00
2019-02-14T01:12:56.703Z,101357.41
2019-02-14T01:15:29.589Z,101350.25
2019-02-14T01:18:02.288Z,101344.41
2019-02-14T01:20:34.673Z,101342.20
2019-02-14T01:23:07.084Z,101340.23
2019-02-14T01:25:39.472Z,101337.38
2019-02-14T01:28:11.894Z,101336.50
2019-02-14T01:30:44.287Z,101336.05
2019-02-14T01:33:26.200Z,101342.30
2019-02-14T01:35:58.586Z,101339.73
2019-02-14T01:38:31.019Z,101340.48
2019-02-14T01:41:03.406Z,101343.80
2019-02-14T01:43:35.821Z,101340.42
2019-02-14T01:46:08.219Z,101341.17
2019-02-14T01:48:40.631Z,101340.45
2019-02-14T01:51:13.031Z,101344.02
2019-02-14T01:53:45.445Z,101347.56
2019-02-14T01:56:17.927Z,101352.91
2019-02-14T01:58:51.438Z,101353.95
2019-02-14T02:01:23.860Z,101353.16
2019-02-14T02:03:56.107Z,101349.44
2019-02-14T02:06:28.328Z,101348.57
2019-02-14T02:09:00.475Z,101345.09
2019-02-14T02:11:33.846Z,101353.75
2019-02-14T02:14:06.208Z,101357.08
2019-02-14T02:16:38.355Z,101358.07
2019-02-14T02:19:10.814Z,101355.55
2019-02-14T02:21:43.089Z,101357.70
2019-02-14T02:24:15.228Z,101357.00
2019-02-14T02:26:47.426Z,101349.55
2019-02-14T02:29:19.716Z,101360.59
2019-02-14T02:31:51.831Z,101361.70
2019-02-14T02:34:24.061Z,101359.05
2019-02-14T02:36:56.410Z,101360.92
2019-02-14T02:39:28.559Z,101357.11
2019-02-14T02:42:00.835Z,101362.02
2019-02-14T02:44:33.130Z,101365.37
2019-02-14T02:47:05.249Z,101358.17
2019-02-14T02:49:37.495Z,101359.16
2019-02-14T02:52:09.688Z,101356.47
2019-02-14T02:54:41.891Z,101357.42
2019-02-14T02:57:14.015Z,101358.66
2019-02-14T02:59:46.162Z,101360.16
2019-02-14T03:02:18.354Z,101360.13
2019-02-14T03:04:50.604Z,101364.09
2019-02-14T03:07:22.723Z,101361.97
2019-02-14T03:09:54.895Z,101363.81
2019-02-14T03:12:27.240Z,101359.83
2019-02-14T03:14:59.390Z,101361.85
2019-02-14T03:17:31.524Z,101354.89
2019-02-14T03:20:03.847Z,101355.13
2019-02-14T03:22:35.965Z,101354.66
2019-02-14T03:25:12.473Z,101359.51
2019-02-14T03:27:44.889Z,101356.42
2019-02-14T03:30:17.315Z,101354.16
2019-02-14T03:32:49.731Z,101353.53
2019-02-14T03:35:22.115Z,101356.93
2019-02-14T03:37:54.424Z,101354.86
2019-02-14T03:40:26.816Z,101355.55
2019-02-14T03:42:59.178Z,101356.16
2019-02-14T03:45:31.592Z,101356.09
2019-02-14T03:48:03.978Z,101356.78
2019-02-14T03:50:36.347Z,101358.95
2019-02-14T03:53:08.754Z,101354.27
2019-02-14T03:55:41.160Z,101358.91
2019-02-14T03:58:13.568Z,101359.56
2019-02-14T04:00:45.963Z,101361.14
2019-02-14T04:03:18.330Z,101359.12
2019-02-14T04:05:50.736Z,101362.90
2019-02-14T04:08:23.122Z,101361.86
2019-02-14T04:10:55.533Z,101363.91
2019-02-14T04:13:27.907Z,101370.11
2019-02-14T04:16:00.329Z,101366.16
2019-02-14T04:18:32.825Z,101374.84
2019-02-14T04:21:05.208Z,101371.27
2019-02-14T04:23:37.620Z,101376.59
2019-02-14T04:26:10.014Z,101371.95
2019-02-14T04:28:42.417Z,101376.75
2019-02-14T04:31:14.796Z,101371.30
2019-02-14T04:33:47.203Z,101376.86
2019-02-14T04:36:19.580Z,101375.87
2019-02-14T04:38:52.025Z,101374.33
2019-02-14T04:41:24.433Z,101375.16
2019-02-14T04:43:56.872Z,101384.17
2019-02-14T04:46:29.258Z,101381.70
2019-02-14T04:49:01.673Z,101379.53
2019-02-14T04:51:34.130Z,101377.81
2019-02-14T04:54:06.528Z,101377.12
2019-02-14T04:56:38.934Z,101380.23
2019-02-14T04:59:11.364Z,101386.66
2019-02-14T05:01:44.049Z,101383.59
2019-02-14T05:04:16.542Z,101380.39
2019-02-14T05:06:48.915Z,101378.64
2019-02-14T05:09:21.401Z,101376.41
2019-02-14T05:11:53.923Z,101378.98
2019-02-14T05:14:26.324Z,101375.77
2019-02-14T05:16:58.670Z,101374.83
2019-02-14T05:19:31.079Z,101374.52
2019-02-14T05:22:03.459Z,101382.67
2019-02-14T05:24:35.862Z,101381.97
2019-02-14T05:27:08.289Z,101381.89
2019-02-14T05:29:40.684Z,101383.08
2019-02-14T05:32:13.093Z,101386.72
2019-02-14T05:34:45.493Z,101389.09
2019-02-14T05:37:17.880Z,101391.55
2019-02-14T05:39:50.289Z,101387.66
2019-02-14T05:42:22.686Z,101387.43
2019-02-14T05:44:55.017Z,101389.09
2019-02-14T05:47:27.393Z,101391.22
2019-02-14T05:49:59.801Z,101387.62
2019-02-14T05:52:32.223Z,101390.82
2019-02-14T05:55:04.640Z,101393.94
2019-02-14T05:57:37.026Z,101396.73
2019-02-14T06:00:12.133Z,101398.22
2019-02-14T06:02:44.486Z,101397.34
2019-02-14T06:05:16.918Z,101397.11
2019-02-14T06:07:49.333Z,101394.75
2019-02-14T06:10:21.742Z,101400.54
2019-02-14T06:12:54.242Z,101403.37
2019-02-14T06:15:26.667Z,101403.55
2019-02-14T06:17:58.989Z,101414.23
2019-02-14T06:20:31.391Z,101413.28
2019-02-14T06:23:03.783Z,101415.52
2019-02-14T06:25:36.215Z,101425.36
2019-02-14T06:28:10.968Z,101430.45
2019-02-14T06:30:43.379Z,101430.66
2019-02-14T06:33:15.778Z,101429.59
2019-02-14T06:35:48.220Z,101430.47
2019-02-14T06:38:20.569Z,101433.70
2019-02-14T06:40:52.991Z,101433.98
2019-02-14T06:43:25.388Z,101437.84
2019-02-14T06:45:57.826Z,101441.39
2019-02-14T06:48:30.219Z,101448.80
2019-02-14T06:51:02.746Z,101446.64
2019-02-14T06:53:35.210Z,101442.23
2019-02-14T06:56:07.647Z,101448.41
2019-02-14T06:58:40.071Z,101444.00
2019-02-14T07:01:12.497Z,101452.00
2019-02-14T07:03:45.042Z,101459.45
2019-02-14T07:06:17.448Z,101466.63
2019-02-14T07:08:49.855Z,101463.47
2019-02-14T07:11:22.336Z,101467.45
2019-02-14T07:13:54.805Z,101458.94
2019-02-14T07:16:27.365Z,101462.13
2019-02-14T07:18:59.807Z,101462.41
2019-02-14T07:21:32.274Z,101477.87
2019-02-14T07:24:04.714Z,101472.33
2019-02-14T07:26:37.121Z,101475.48
2019-02-14T07:29:09.549Z,101475.05
2019-02-14T07:31:42.182Z,101479.53
2019-02-14T07:34:14.655Z,101484.33
2019-02-14T07:36:47.249Z,101487.20
2019-02-14T07:39:19.663Z,101488.61
2019-02-14T07:41:52.082Z,101489.00
2019-02-14T07:44:24.533Z,101492.09
2019-02-14T07:46:58.092Z,101496.54
2019-02-14T07:49:30.512Z,101492.72
2019-02-14T07:52:02.999Z,101489.41
2019-02-14T07:54:35.403Z,101490.98
2019-02-14T07:57:07.853Z,101490.94
2019-02-14T07:59:40.434Z,101495.39
2019-02-14T08:02:12.917Z,101496.49
2019-02-14T08:04:45.319Z,101492.34
2019-02-14T08:07:18.374Z,101498.16
2019-02-14T08:09:52.065Z,101502.05
2019-02-14T08:12:24.606Z,101501.27
2019-02-14T08:14:57.157Z,101500.11
2019-02-14T08:17:31.167Z,101497.36
2019-02-14T08:20:03.589Z,101497.70
2019-02-14T08:22:36.044Z,101498.94
2019-02-14T08:25:10.741Z,101503.22
2019-02-14T08:27:43.380Z,101505.72
2019-02-14T08:30:16.824Z,101504.70
2019-02-14T08:32:49.203Z,101505.39
2019-02-14T08:35:22.561Z,101506.20
2019-02-14T08:37:56.696Z,101507.19
2019-02-14T08:40:29.137Z,101508.94
2019-02-14T08:43:01.646Z,101510.67
2019-02-14T08:45:34.029Z,101508.75
2019-02-14T08:48:06.947Z,101509.11
2019-02-14T08:50:39.339Z,101513.09
2019-02-14T08:53:11.763Z,101514.00
2019-02-14T08:55:44.241Z,101515.59
2019-02-14T08:58:16.722Z,101509.62
2019-02-14T09:00:49.137Z,101512.05
2019-02-14T09:03:21.488Z,101508.70
2019-02-14T09:05:53.888Z,101504.87
2019-02-14T09:08:27.290Z,101499.96
2019-02-14T09:10:59.702Z,101500.66
2019-02-14T09:13:32.071Z,101496.77
2019-02-14T09:16:04.727Z,101493.91
2019-02-14T09:18:37.196Z,101490.63
2019-02-14T09:21:09.611Z,101493.00
2019-02-14T09:23:42.049Z,101495.86
2019-02-14T09:26:14.452Z,101494.66
2019-02-14T09:28:46.985Z,101493.21
2019-02-14T09:31:19.611Z,101491.22
2019-02-14T09:33:52.076Z,101486.48
2019-02-14T09:36:24.491Z,101484.49
2019-02-14T09:38:56.918Z,101483.12
2019-02-14T09:41:29.308Z,101480.41
2019-02-14T09:44:01.777Z,101479.92
2019-02-14T09:46:34.265Z,101483.92
2019-02-14T09:49:06.696Z,101486.48
2019-02-14T09:51:39.141Z,101481.46
2019-02-14T09:54:11.584Z,101477.27
2019-02-14T09:56:43.978Z,101476.50
2019-02-14T09:59:16.427Z,101470.46
2019-02-14T10:01:48.850Z,101469.59
2019-02-14T10:04:21.280Z,101469.89
2019-02-14T10:06:53.754Z,101471.49
2019-02-14T10:09:26.198Z,101469.69
2019-02-14T10:11:58.566Z,101474.08
2019-02-14T10:14:31.056Z,101471.61
2019-02-14T10:17:03.397Z,101478.83
2019-02-14T10:19:35.987Z,101478.42
2019-02-14T10:22:08.414Z,101474.22
2019-02-14T10:24:40.935Z,101465.17
2019-02-14T10:27:13.341Z,101466.41
2019-02-14T10:29:45.771Z,101466.81
2019-02-14T10:32:18.237Z,101471.27
2019-02-14T10:34:50.860Z,101473.09
2019-02-14T10:37:23.271Z,101470.74
2019-02-14T10:39:55.693Z,101474.42
2019-02-14T10:42:28.019Z,101467.29
2019-02-14T10:45:00.379Z,101462.12
2019-02-14T10:47:32.828Z,101466.72
2019-02-14T10:50:05.642Z,101465.19
2019-02-14T10:52:38.036Z,101460.92
2019-02-14T10:55:11.646Z,101451.05
2019-02-14T10:57:44.052Z,101450.80
2019-02-14T11:00:20.272Z,101448.78
2019-02-14T11:02:53.292Z,101444.59
2019-02-14T11:05:25.703Z,101446.62
2019-02-14T11:07:58.091Z,101445.42
2019-02-14T11:10:30.453Z,101446.16
2019-02-14T11:13:02.894Z,101439.88
2019-02-14T11:15:35.321Z,101445.62
2019-02-14T11:18:07.705Z,101450.06
2019-02-14T11:20:40.118Z,101443.23
2019-02-14T11:23:12.559Z,101434.41
2019-02-14T11:25:46.049Z,101429.05
2019-02-14T11:28:18.439Z,101427.59
2019-02-14T11:30:50.845Z,101425.43
2019-02-14T11:33:23.240Z,101420.77
2019-02-14T11:35:55.660Z,101417.42
2019-02-14T11:38:27.981Z,101420.73
2019-02-14T11:41:00.399Z,101410.19
2019-02-14T11:43:32.778Z,101403.55
2019-02-14T11:46:05.243Z,101408.99
2019-02-14T11:48:37.623Z,101402.14
2019-02-14T11:51:10.032Z,101387.06
2019-02-14T11:53:43.282Z,101381.06
2019-02-14T11:56:16.007Z,101384.07
2019-02-14T11:58:48.403Z,101387.67
2019-02-14T12:01:20.803Z,101385.33
2019-02-14T12:03:53.260Z,101384.48
2019-02-14T12:06:25.664Z,101387.38
2019-02-14T12:09:00.433Z,101384.98
2019-02-14T12:11:32.165Z,101386.44
2019-02-14T12:14:04.630Z,101382.84
2019-02-14T12:16:37.068Z,101374.17
2019-02-14T12:19:09.449Z,101367.34
2019-02-14T12:21:41.861Z,101372.17
2019-02-14T12:24:14.248Z,101368.09
2019-02-14T12:26:46.656Z,101363.94
2019-02-14T12:29:19.042Z,101353.63
2019-02-14T12:31:51.471Z,101354.44
2019-02-14T12:34:23.869Z,101348.08
2019-02-14T12:36:56.300Z,101338.14
2019-02-14T12:39:28.682Z,101334.09
2019-02-14T12:42:01.100Z,101336.55
2019-02-14T12:44:33.592Z,101335.05
2019-02-14T12:47:06.000Z,101329.95
2019-02-14T12:49:38.378Z,101325.23
2019-02-14T12:52:10.812Z,101319.96
2019-02-14T12:54:43.197Z,101310.26
2019-02-14T12:57:15.552Z,101306.89
2019-02-14T12:59:47.943Z,101307.39
2019-02-14T13:02:20.346Z,101301.65
2019-02-14T13:04:52.834Z,101296.52
2019-02-14T13:07:25.162Z,101293.37
2019-02-14T13:09:57.537Z,101290.66
2019-02-14T13:12:29.960Z,101285.61
2019-02-14T13:15:02.342Z,101281.45
2019-02-14T13:17:35.744Z,101280.86
2019-02-14T13:20:08.819Z,101281.40
2019-02-14T13:22:41.236Z,101280.23
2019-02-14T13:25:13.921Z,101279.92
2019-02-14T13:27:46.331Z,101272.12
2019-02-14T13:30:21.439Z,101267.69
2019-02-14T13:32:53.841Z,101272.13
2019-02-14T13:35:26.229Z,101272.53
2019-02-14T13:37:58.648Z,101268.97
2019-02-14T13:40:31.035Z,101267.27
2019-02-14T13:43:03.466Z,101263.86
2019-02-14T13:45:35.868Z,101263.95
2019-02-14T13:48:08.278Z,101267.68
2019-02-14T13:50:40.775Z,101263.73
2019-02-14T13:53:13.195Z,101262.41
2019-02-14T13:55:45.587Z,101251.55
2019-02-14T13:58:18.070Z,101250.56
2019-02-14T14:00:50.411Z,101244.45
2019-02-14T14:03:22.755Z,101240.20
2019-02-14T14:05:55.151Z,101241.98
2019-02-14T14:08:27.596Z,101241.67
2019-02-14T14:11:00.012Z,101246.13
2019-02-14T14:13:32.450Z,101242.31
2019-02-14T14:16:04.886Z,101243.37
2019-02-14T14:18:37.301Z,101238.17
2019-02-14T14:21:09.703Z,101235.62
2019-02-14T14:23:42.134Z,101233.39
2019-02-14T14:26:14.553Z,101237.42
2019-02-14T14:28:47.005Z,101239.55
2019-02-14T14:31:19.429Z,101240.78
2019-02-14T14:33:51.881Z,101232.59
2019-02-14T14:36:24.290Z,101235.16
2019-02-14T14:38:56.642Z,101229.38
2019-02-14T14:41:29.048Z,101229.11
2019-02-14T14:44:06.300Z,101227.97
2019-02-14T14:46:52.140Z,101226.53
2019-02-14T14:49:24.566Z,101225.50
2019-02-14T14:51:56.963Z,101221.77
2019-02-14T14:54:29.384Z,101226.05
2019-02-14T14:57:01.773Z,101218.79
2019-02-14T14:59:34.194Z,101214.16
2019-02-14T15:02:06.575Z,101210.80
2019-02-14T15:04:39.144Z,101214.11
2019-02-14T15:07:11.568Z,101214.65
2019-02-14T15:09:44.005Z,101215.98
2019-02-14T15:12:16.398Z,101212.31
2019-02-14T15:14:48.821Z,101213.95
2019-02-14T15:17:21.235Z,101212.41
2019-02-14T15:19:53.670Z,101216.08
2019-02-14T15:22:26.066Z,101213.32
2019-02-14T15:24:58.527Z,101215.98
2019-02-14T15:27:30.874Z,101213.37
2019-02-14T15:30:03.300Z,101221.21
2019-02-14T15:32:35.768Z,101218.69
2019-02-14T15:35:11.164Z,101225.15
2019-02-14T15:37:44.536Z,101222.17
2019-02-14T15:40:17.620Z,101224.08
2019-02-14T15:42:50.072Z,101223.33
2019-02-14T15:45:22.499Z,101219.83
2019-02-14T15:47:54.898Z,101209.30
2019-02-14T15:50:27.891Z,101214.23
2019-02-14T15:53:01.451Z,101208.92
2019-02-14T15:55:33.945Z,101207.73
2019-02-14T15:58:07.166Z,101214.19
2019-02-14T16:00:40.439Z,101211.73
2019-02-14T16:03:14.656Z,101215.53
2019-02-14T16:05:46.964Z,101215.97
2019-02-14T16:08:20.100Z,101216.16
2019-02-14T16:10:55.810Z,101226.52
2019-02-14T16:13:29.265Z,101228.16
2019-02-14T16:16:01.880Z,101225.31
2019-02-14T16:18:34.283Z,101222.39
2019-02-14T16:21:07.903Z,101217.17
2019-02-14T16:23:40.494Z,101217.82
2019-02-14T16:26:13.395Z,101220.47
2019-02-14T16:28:47.200Z,101222.00
2019-02-14T16:31:19.622Z,101221.16
2019-02-14T16:33:52.146Z,101226.66
2019-02-14T16:36:24.563Z,101226.29
2019-02-14T16:38:58.719Z,101219.42
2019-02-14T16:41:30.996Z,101213.37
2019-02-14T16:44:03.394Z,101221.70
2019-02-14T16:46:35.860Z,101227.16
2019-02-14T16:49:08.279Z,101223.57
2019-02-14T16:51:40.686Z,101219.45
2019-02-14T16:54:13.106Z,101222.17
2019-02-14T16:56:45.506Z,101221.12
2019-02-14T16:59:18.895Z,101221.50
2019-02-14T17:01:51.319Z,101227.41
2019-02-14T17:04:23.721Z,101228.34
2019-02-14T17:06:56.169Z,101231.31
2019-02-14T17:09:28.592Z,101239.73
2019-02-14T17:12:01.128Z,101240.39
2019-02-14T17:14:33.589Z,101247.95
2019-02-14T17:17:05.995Z,101250.75
2019-02-14T17:19:38.473Z,101246.20
2019-02-14T17:22:10.916Z,101244.05
2019-02-14T17:24:43.321Z,101249.11
2019-02-14T17:27:15.739Z,101255.13
2019-02-14T17:29:48.161Z,101256.78
2019-02-14T17:32:20.521Z,101261.48
2019-02-14T17:34:52.918Z,101259.80
2019-02-14T17:37:25.392Z,101263.73
2019-02-14T17:39:57.799Z,101266.27
2019-02-14T17:42:30.242Z,101272.62
2019-02-14T17:45:02.758Z,101270.21
2019-02-14T17:47:35.272Z,101269.88
2019-02-14T17:50:07.962Z,101272.42
2019-02-14T17:52:40.387Z,101268.50
2019-02-14T17:55:12.784Z,101271.03
2019-02-14T17:57:45.273Z,101273.58
2019-02-14T18:00:17.696Z,101276.56
2019-02-14T18:02:50.257Z,101277.17
2019-02-14T18:05:22.700Z,101274.53
2019-02-14T18:07:55.092Z,101270.84
2019-02-14T18:10:27.481Z,101272.70
2019-02-14T18:12:59.952Z,101272.16
2019-02-14T18:15:32.280Z,101269.72
2019-02-14T18:18:04.752Z,101269.45
2019-02-14T18:20:37.155Z,101269.43
2019-02-14T18:23:09.596Z,101271.51
2019-02-14T18:25:42.069Z,101268.94
2019-02-14T18:28:14.487Z,101261.45
2019-02-14T18:30:46.955Z,101263.22
2019-02-14T18:33:19.374Z,101268.82
2019-02-14T18:35:51.766Z,101272.90
2019-02-14T18:38:24.285Z,101270.58
2019-02-14T18:41:03.846Z,101268.17
2019-02-14T18:43:30.654Z,101261.95
2019-02-14T18:46:03.098Z,101259.36
2019-02-14T18:48:35.746Z,101267.09
2019-02-14T18:51:08.172Z,101270.47
2019-02-14T18:53:40.719Z,101276.08
2019-02-14T18:56:13.966Z,101272.83
2019-02-14T18:58:46.748Z,101274.27
2019-02-14T19:01:19.146Z,101266.59
2019-02-14T19:03:51.725Z,101268.95
2019-02-14T19:06:24.124Z,101264.60
2019-02-14T19:08:56.856Z,101263.72
2019-02-14T19:11:30.329Z,101265.13
2019-02-14T19:14:02.687Z,101260.69
2019-02-14T19:16:35.545Z,101266.09
2019-02-14T19:19:08.085Z,101261.30
2019-02-14T19:21:40.407Z,101260.89
2019-02-14T19:24:12.837Z,101264.00
2019-02-14T19:26:45.226Z,101260.07
2019-02-14T19:29:17.621Z,101263.25
2019-02-14T19:31:50.038Z,101263.61
2019-02-14T19:34:22.437Z,101260.50
2019-02-14T19:36:54.898Z,101255.55
2019-02-14T19:39:27.966Z,101248.22
2019-02-14T19:42:00.805Z,101251.17
2019-02-14T19:44:33.425Z,101253.15
2019-02-14T19:47:05.836Z,101247.59
2019-02-14T19:49:38.243Z,101246.05
2019-02-14T19:52:12.014Z,101246.20
2019-02-14T19:54:45.572Z,101244.66
2019-02-14T19:57:17.932Z,101241.67
2019-02-14T19:59:50.331Z,101243.05
2019-02-14T20:02:22.749Z,101241.61
2019-02-14T20:04:55.401Z,101242.34
2019-02-14T20:07:28.033Z,101238.13
2019-02-14T20:10:01.466Z,101237.64
2019-02-14T20:12:34.066Z,101238.44
2019-02-14T20:15:09.214Z,101231.05
2019-02-14T20:17:41.587Z,101227.05
2019-02-14T20:20:14.065Z,101226.06
2019-02-14T20:22:46.487Z,101234.06
2019-02-14T20:25:20.961Z,101231.47
2019-02-14T20:27:53.498Z,101222.30
2019-02-14T20:30:26.038Z,101227.28
2019-02-14T20:33:04.878Z,101231.00
2019-02-14T20:35:32.566Z,101229.09
2019-02-14T20:38:05.058Z,101229.48
2019-02-14T20:40:37.533Z,101227.23
2019-02-14T20:43:10.119Z,101227.70
2019-02-14T20:45:42.518Z,101228.09
2019-02-14T20:48:16.013Z,101233.95
2019-02-14T20:50:48.466Z,101236.20
2019-02-14T20:53:20.934Z,101230.50
2019-02-14T20:55:53.335Z,101232.02
2019-02-14T20:58:25.789Z,101223.91
2019-02-14T21:00:58.528Z,101230.88
2019-02-14T21:03:31.146Z,101227.23
2019-02-14T21:06:03.753Z,101230.28
2019-02-14T21:08:36.184Z,101232.95
2019-02-14T21:11:08.582Z,101237.42
2019-02-14T21:13:42.004Z,101237.89
2019-02-14T21:16:14.509Z,101242.53
2019-02-14T21:18:46.916Z,101242.97
2019-02-14T21:21:19.406Z,101248.27
2019-02-14T21:23:51.900Z,101237.61
2019-02-14T21:26:24.384Z,101235.67
2019-02-14T21:28:56.734Z,101244.14
2019-02-14T21:31:29.130Z,101240.55
2019-02-14T21:34:01.611Z,101240.97
2019-02-14T21:36:34.115Z,101240.33
2019-02-14T21:39:07.440Z,101232.43
2019-02-14T21:41:41.306Z,101240.36
2019-02-14T21:44:13.752Z,101238.74
2019-02-14T21:46:46.193Z,101240.61
2019-02-14T21:49:18.809Z,101237.34
2019-02-14T21:51:51.264Z,101235.73
2019-02-14T21:54:23.685Z,101239.47
2019-02-14T21:56:56.163Z,101232.61
2019-02-14T21:59:29.657Z,101228.68
2019-02-14T22:02:05.941Z,101230.93
2019-02-14T22:04:36.426Z,101233.05
2019-02-14T22:07:08.981Z,101232.28
2019-02-14T22:09:41.465Z,101230.32
2019-02-14T22:12:13.857Z,101230.03
2019-02-14T22:14:47.352Z,101235.52
2019-02-14T22:17:22.662Z,101227.66
2019-02-14T22:19:54.850Z,101235.77
2019-02-14T22:22:27.238Z,101234.12
2019-02-14T22:24:59.732Z,101226.92
2019-02-14T22:27:32.120Z,101231.36
2019-02-14T22:30:06.412Z,101226.37
2019-02-14T22:32:38.801Z,101224.80
2019-02-14T22:35:11.222Z,101226.63
2019-02-14T22:37:43.678Z,101223.05
2019-02-14T22:40:16.083Z,101226.13
2019-02-14T22:42:48.496Z,101225.45
2019-02-14T22:45:20.903Z,101226.12
2019-02-14T22:47:53.326Z,101226.66
2019-02-14T22:50:25.733Z,101225.31
2019-02-14T22:52:58.130Z,101225.98
2019-02-14T22:55:30.498Z,101221.22
2019-02-14T22:58:02.883Z,101224.55
2019-02-14T23:00:42.736Z,101228.23
2019-02-14T23:03:15.626Z,101230.00
2019-02-14T23:05:48.045Z,101234.47
2019-02-14T23:08:20.391Z,101241.95
2019-02-14T23:10:52.841Z,101240.95
2019-02-14T23:13:25.255Z,101243.64
2019-02-14T23:15:57.664Z,101242.91
2019-02-14T23:18:30.012Z,101245.94
2019-02-14T23:21:02.415Z,101245.01
2019-02-14T23:23:34.831Z,101246.77
2019-02-14T23:26:07.314Z,101250.60
2019-02-14T23:28:39.808Z,101246.25
2019-02-14T23:31:12.225Z,101246.87
2019-02-14T23:33:44.611Z,101240.57
2019-02-14T23:36:17.034Z,101243.61
2019-02-14T23:38:49.440Z,101236.72
2019-02-14T23:41:21.859Z,101237.41
2019-02-14T23:43:54.247Z,101234.94
2019-02-14T23:46:26.589Z,101236.11
2019-02-14T23:48:59.019Z,101240.03
2019-02-14T23:51:31.371Z,101236.02
2019-02-14T23:54:03.752Z,101239.63
2019-02-14T23:56:36.175Z,101237.50
2019-02-14T23:59:09.678Z,101238.28
